This is the latest recevied weather packets stored in our database for station/object VA3JLF-1. If no packets are shown the sender has not sent any weather packets the latest 10 day(s).
| Time | Temp. | Humidity | Pressure | Rain* | Wind** | Luminosity | Snow |
|---|---|---|---|---|---|---|---|
| 1777884958 | 8.89° C | 83% | 1002.4 hPa | 0 mm | - | - | - |
| 1777884359 | 8.89° C | 84% | 1002.4 hPa | 0 mm | - | - | - |
| 1777883761 | 7.78° C | 87% | 1002.6 hPa | 0 mm | - | - | - |
| 1777883158 | 7.78° C | 89% | 1002.8 hPa | 0 mm | - | - | - |
| 1777882559 | 7.22° C | 88% | 1002.6 hPa | 0 mm | - | - | - |
| 1777881960 | 7.22° C | 87% | 1002.7 hPa | 0 mm | - | - | - |
| 1777881358 | 7.78° C | 87% | 1002.6 hPa | 0 mm | - | - | - |
| 1777880758 | 7.22° C | 87% | 1002.8 hPa | 0 mm | - | - | - |
| 1777880159 | 7.78° C | 86% | 1002.8 hPa | 0 mm | - | - | - |
| 1777879558 | 8.33° C | 84% | 1002.6 hPa | 0 mm | - | - | - |
| 1777878958 | 8.33° C | 86% | 1003.1 hPa | 0 mm | - | - | - |
| 1777878361 | 7.22° C | 89% | 1002.8 hPa | 0 mm | - | - | - |
| 1777878358 | 7.22° C | 89% | 1002.8 hPa | 0 mm | - | - | - |
| 1777877758 | 6.67° C | 93% | 1002.8 hPa | 0 mm | - | - | - |
| 1777877157 | 6.67° C | 97% | 1002.8 hPa | 0 mm | - | - | - |
| 1777876558 | 6.67° C | 98% | 1003 hPa | 0 mm | - | - | - |
| 1777875958 | 6.67° C | 98% | 1003.3 hPa | 0 mm | - | - | - |
| 1777875358 | 6.67° C | 99% | 1003.3 hPa | 0 mm | - | - | - |
| 1777874758 | 6.67° C | 99% | 1003.5 hPa | 0 mm | - | - | - |
| 1777874164 | 6.67° C | 99% | 1003.4 hPa | 0 mm | - | - | - |
| 1777874157 | 6.67° C | 99% | 1003.4 hPa | 0 mm | - | - | - |
| 1777873558 | 6.67° C | 99% | 1003.6 hPa | 0 mm | - | - | - |
| 1777872958 | 6.67° C | 99% | 1003.6 hPa | 0 mm | - | - | - |
| 1777872359 | 6.67° C | 99% | 1003.9 hPa | 0 mm | - | - | - |
| 1777871160 | 6.67° C | 99% | 1003.9 hPa | 0 mm | - | - | - |
* Rain latest hour (hover to see other rain measurements)
** Current wind speed in m/s (hover to see current wind gust speed)